createdAt,value
2024-01-01T00:00:06.265Z,7.17
2024-01-01T00:02:40.499Z,7.25
2024-01-01T00:05:09.549Z,7.23
2024-01-01T00:07:37.839Z,7.27
2024-01-01T00:10:06.497Z,7.31
2024-01-01T00:12:34.625Z,7.32
2024-01-01T00:15:02.507Z,7.30
2024-01-01T00:17:30.542Z,7.30
2024-01-01T00:20:00.597Z,7.30
2024-01-01T00:22:28.627Z,7.30
2024-01-01T00:24:56.479Z,7.29
2024-01-01T00:27:25.874Z,7.29
2024-01-01T00:29:53.768Z,7.30
2024-01-01T00:32:21.797Z,7.26
2024-01-01T00:34:49.864Z,7.33
2024-01-01T00:37:17.917Z,7.33
2024-01-01T00:39:46.522Z,7.30
2024-01-01T00:42:14.502Z,7.35
2024-01-01T00:44:45.115Z,7.35
2024-01-01T00:47:13.458Z,7.39
2024-01-01T00:49:41.634Z,7.46
2024-01-01T00:52:09.609Z,7.42
2024-01-01T00:54:37.549Z,7.43
2024-01-01T00:57:05.657Z,7.45
2024-01-01T00:59:33.632Z,7.46
2024-01-01T01:02:01.702Z,7.38
2024-01-01T01:04:29.954Z,7.35
2024-01-01T01:06:58.171Z,7.36
2024-01-01T01:09:26.065Z,7.35
2024-01-01T01:11:54.075Z,7.36
2024-01-01T01:14:22.015Z,7.40
2024-01-01T01:16:50.110Z,7.39
2024-01-01T01:19:18.017Z,7.38
2024-01-01T01:21:46.005Z,7.37
2024-01-01T01:24:16.933Z,7.34
2024-01-01T01:26:45.243Z,7.36
2024-01-01T01:29:14.549Z,7.35
2024-01-01T01:31:43.506Z,7.40
2024-01-01T01:34:11.965Z,7.49
2024-01-01T01:36:40.064Z,7.55
2024-01-01T01:39:07.994Z,7.56
2024-01-01T01:41:38.705Z,7.57
2024-01-01T01:44:06.912Z,7.58
2024-01-01T01:46:35.925Z,7.52
2024-01-01T01:49:03.955Z,7.57
2024-01-01T01:51:32.174Z,7.58
2024-01-01T01:54:00.639Z,7.56
2024-01-01T01:56:29.459Z,7.59
2024-01-01T01:58:57.665Z,7.57
2024-01-01T02:01:25.779Z,7.61
2024-01-01T02:03:53.977Z,7.62
2024-01-01T02:06:21.922Z,7.62
2024-01-01T02:08:50.782Z,7.59
2024-01-01T02:11:19.036Z,7.54
2024-01-01T02:13:47.094Z,7.58
2024-01-01T02:16:14.995Z,7.59
2024-01-01T02:18:44.151Z,7.53
2024-01-01T02:21:12.241Z,7.53
2024-01-01T02:23:40.211Z,7.53
2024-01-01T02:26:09.234Z,7.59
2024-01-01T02:28:37.499Z,7.54
2024-01-01T02:31:05.560Z,7.51
2024-01-01T02:33:33.572Z,7.59
2024-01-01T02:36:01.530Z,7.57
2024-01-01T02:38:30.124Z,7.56
2024-01-01T02:40:58.046Z,7.52
2024-01-01T02:43:25.985Z,7.54
2024-01-01T02:45:53.890Z,7.54
2024-01-01T02:48:21.939Z,7.58
2024-01-01T02:50:49.911Z,7.62
2024-01-01T02:53:17.984Z,7.59
2024-01-01T02:55:46.036Z,7.58
2024-01-01T02:58:14.067Z,7.50
2024-01-01T03:00:42.394Z,7.47
2024-01-01T03:03:10.479Z,7.47
2024-01-01T03:05:38.468Z,7.51
2024-01-01T03:08:07.174Z,7.48
2024-01-01T03:10:35.349Z,7.43
2024-01-01T03:13:03.620Z,7.42
2024-01-01T03:15:31.559Z,7.45
2024-01-01T03:17:59.685Z,7.49
2024-01-01T03:20:32.363Z,7.49
2024-01-01T03:23:00.384Z,7.44
2024-01-01T03:25:28.485Z,7.51
2024-01-01T03:27:56.712Z,7.52
2024-01-01T03:30:25.390Z,7.50
2024-01-01T03:32:53.436Z,7.49
2024-01-01T03:35:21.945Z,7.50
2024-01-01T03:37:49.988Z,7.53
2024-01-01T03:40:18.107Z,7.57
2024-01-01T03:42:46.174Z,7.54
2024-01-01T03:45:14.093Z,7.50
2024-01-01T03:47:42.108Z,7.59
2024-01-01T03:50:10.545Z,7.53
2024-01-01T03:52:39.788Z,7.59
2024-01-01T03:55:08.461Z,7.57
2024-01-01T03:57:37.040Z,7.53
2024-01-01T04:00:08.960Z,7.40
2024-01-01T04:02:37.124Z,7.39
2024-01-01T04:05:06.088Z,7.45
2024-01-01T04:07:35.698Z,7.45
2024-01-01T04:10:06.314Z,7.46
2024-01-01T04:12:34.787Z,7.48
2024-01-01T04:15:05.125Z,7.47
2024-01-01T04:17:34.201Z,7.46
2024-01-01T04:20:02.526Z,7.45
2024-01-01T04:22:30.505Z,7.41
2024-01-01T04:24:58.472Z,7.37
2024-01-01T04:27:26.363Z,7.47
2024-01-01T04:29:54.618Z,7.45
2024-01-01T04:32:23.118Z,7.47
2024-01-01T04:34:51.241Z,7.46
2024-01-01T04:37:19.163Z,7.45
2024-01-01T04:39:47.096Z,7.44
2024-01-01T04:42:15.344Z,7.43
2024-01-01T04:44:43.282Z,7.41
2024-01-01T04:47:11.363Z,7.44
2024-01-01T04:49:39.577Z,7.47
2024-01-01T04:52:07.516Z,7.49
2024-01-01T04:54:35.496Z,7.50
2024-01-01T04:57:03.449Z,7.51
2024-01-01T04:59:31.484Z,7.49
2024-01-01T05:01:59.467Z,7.53
2024-01-01T05:04:27.427Z,7.54
2024-01-01T05:06:55.282Z,7.51
2024-01-01T05:09:23.251Z,7.51
2024-01-01T05:11:51.189Z,7.48
2024-01-01T05:14:19.410Z,7.42
2024-01-01T05:16:48.713Z,7.46
2024-01-01T05:19:17.119Z,7.45
2024-01-01T05:21:45.046Z,7.43
2024-01-01T05:24:13.020Z,7.38
2024-01-01T05:26:41.135Z,7.36
2024-01-01T05:29:09.075Z,7.36
2024-01-01T05:31:36.956Z,7.28
2024-01-01T05:34:05.471Z,7.33
2024-01-01T05:36:33.396Z,7.32
2024-01-01T05:39:01.527Z,7.35
2024-01-01T05:41:30.073Z,7.33
2024-01-01T05:43:59.106Z,7.36
2024-01-01T05:46:27.120Z,7.35
2024-01-01T05:48:55.090Z,7.39
2024-01-01T05:51:23.523Z,7.37
2024-01-01T05:53:51.390Z,7.38
2024-01-01T05:56:19.378Z,7.43
2024-01-01T05:58:47.382Z,7.43
2024-01-01T06:01:15.458Z,7.41
2024-01-01T06:03:43.557Z,7.41
2024-01-01T06:06:12.131Z,7.41
2024-01-01T06:08:40.012Z,7.37
2024-01-01T06:11:08.980Z,7.38
2024-01-01T06:13:37.008Z,7.42
2024-01-01T06:16:05.338Z,7.45
2024-01-01T06:18:33.416Z,7.47
2024-01-01T06:21:01.641Z,7.48
2024-01-01T06:23:29.658Z,7.45
2024-01-01T06:25:57.745Z,7.50
2024-01-01T06:28:27.477Z,7.51
2024-01-01T06:30:55.518Z,7.46
2024-01-01T06:33:23.507Z,7.47
2024-01-01T06:35:51.538Z,7.56
2024-01-01T06:38:19.522Z,7.60
2024-01-01T06:40:47.883Z,7.63
2024-01-01T06:43:15.976Z,7.63
2024-01-01T06:45:43.982Z,7.64
2024-01-01T06:48:12.755Z,7.62
2024-01-01T06:50:41.003Z,7.65
2024-01-01T06:53:09.041Z,7.67
2024-01-01T06:55:37.086Z,7.70
2024-01-01T06:58:05.827Z,7.77
2024-01-01T07:00:34.517Z,7.79
2024-01-01T07:03:02.688Z,7.81
2024-01-01T07:05:31.548Z,7.84
2024-01-01T07:07:59.718Z,7.84
2024-01-01T07:10:27.797Z,7.83
2024-01-01T07:12:56.092Z,7.86
2024-01-01T07:15:24.113Z,7.83
2024-01-01T07:17:52.269Z,7.91
2024-01-01T07:20:20.411Z,7.87
2024-01-01T07:22:48.484Z,7.86
2024-01-01T07:25:16.449Z,7.95
2024-01-01T07:27:44.587Z,8.01
2024-01-01T07:30:13.080Z,8.02
2024-01-01T07:32:40.985Z,8.02
2024-01-01T07:35:09.873Z,8.02
2024-01-01T07:37:37.996Z,7.97
2024-01-01T07:40:07.124Z,8.03
2024-01-01T07:42:35.105Z,8.05
2024-01-01T07:45:03.072Z,8.06
2024-01-01T07:47:31.127Z,8.12
2024-01-01T07:49:59.219Z,8.14
2024-01-01T07:52:27.440Z,8.16
2024-01-01T07:54:58.905Z,8.18
2024-01-01T07:57:27.019Z,8.18
2024-01-01T07:59:59.310Z,8.23
2024-01-01T08:02:27.567Z,8.17
2024-01-01T08:04:55.882Z,8.12
2024-01-01T08:07:24.083Z,8.07
2024-01-01T08:09:52.014Z,8.04
2024-01-01T08:12:20.066Z,8.06
2024-01-01T08:14:47.929Z,8.10
2024-01-01T08:17:15.977Z,8.13
2024-01-01T08:19:43.964Z,8.12
2024-01-01T08:22:12.012Z,8.06
2024-01-01T08:24:39.921Z,7.95
2024-01-01T08:27:08.145Z,7.87
2024-01-01T08:29:36.857Z,7.76
2024-01-01T08:32:05.338Z,7.80
2024-01-01T08:34:33.540Z,7.76
2024-01-01T08:37:02.734Z,7.73
2024-01-01T08:39:30.779Z,7.73
2024-01-01T08:42:00.123Z,7.71
2024-01-01T08:44:28.052Z,7.73
2024-01-01T08:46:56.088Z,7.74
2024-01-01T08:49:24.059Z,7.73
2024-01-01T08:51:52.101Z,7.80
2024-01-01T08:54:20.127Z,7.80
2024-01-01T08:56:48.171Z,7.84
2024-01-01T08:59:19.101Z,7.83
2024-01-01T09:01:47.785Z,7.88
2024-01-01T09:04:15.826Z,7.96
2024-01-01T09:06:44.757Z,8.03
2024-01-01T09:09:12.939Z,8.04
2024-01-01T09:11:40.953Z,8.04
2024-01-01T09:14:08.914Z,8.05
2024-01-01T09:16:38.427Z,8.04
2024-01-01T09:19:06.951Z,8.08
2024-01-01T09:21:35.051Z,8.15
2024-01-01T09:24:03.375Z,8.19
2024-01-01T09:26:31.952Z,8.22
2024-01-01T09:29:00.212Z,8.19
2024-01-01T09:31:28.566Z,8.29
2024-01-01T09:34:01.835Z,8.32
2024-01-01T09:36:33.085Z,8.29
2024-01-01T09:39:01.099Z,8.33
2024-01-01T09:41:29.290Z,8.30
2024-01-01T09:43:57.419Z,8.33
2024-01-01T09:46:27.818Z,8.35
2024-01-01T09:48:55.817Z,8.33
2024-01-01T09:51:23.716Z,8.40
2024-01-01T09:53:53.764Z,8.42
2024-01-01T09:56:22.609Z,8.42
2024-01-01T09:58:50.762Z,8.43
2024-01-01T10:01:20.628Z,8.49
2024-01-01T10:04:08.253Z,8.54
2024-01-01T10:06:37.842Z,8.56
2024-01-01T10:09:07.356Z,8.63
2024-01-01T10:11:36.229Z,8.66
2024-01-01T10:14:05.075Z,8.70
2024-01-01T10:16:33.211Z,8.83
2024-01-01T10:19:02.689Z,8.88
2024-01-01T10:21:33.224Z,8.82
2024-01-01T10:24:26.076Z,8.76
2024-01-01T10:27:03.341Z,8.72
2024-01-01T10:29:37.990Z,8.71
2024-01-01T10:32:06.390Z,8.78
2024-01-01T10:34:36.285Z,8.76
2024-01-01T10:37:04.553Z,8.78
2024-01-01T10:39:34.144Z,8.84
2024-01-01T10:42:03.493Z,8.87
2024-01-01T10:44:31.431Z,8.96
2024-01-01T10:46:59.872Z,9.03
2024-01-01T10:49:32.562Z,9.02
2024-01-01T10:52:31.754Z,9.12
2024-01-01T10:55:30.455Z,9.16
2024-01-01T10:58:16.909Z,9.22
2024-01-01T11:01:04.136Z,9.28
2024-01-01T11:03:34.895Z,9.32
2024-01-01T11:06:22.989Z,9.46
2024-01-01T11:08:51.057Z,9.55
2024-01-01T11:11:32.021Z,9.61
2024-01-01T11:14:01.493Z,9.68
2024-01-01T11:17:00.849Z,9.75
2024-01-01T11:19:50.520Z,9.78
2024-01-01T11:22:35.282Z,9.77
2024-01-01T11:25:04.433Z,9.89
2024-01-01T11:27:37.142Z,9.87
2024-01-01T11:30:07.367Z,9.97
2024-01-01T11:32:38.908Z,9.94
2024-01-01T11:35:08.979Z,9.92
2024-01-01T11:37:37.907Z,10.06
2024-01-01T11:40:07.562Z,10.08
2024-01-01T11:42:36.335Z,10.00
2024-01-01T11:45:12.875Z,10.02
2024-01-01T11:47:41.750Z,10.01
2024-01-01T11:50:11.418Z,9.98
2024-01-01T11:52:39.973Z,10.02
2024-01-01T11:55:08.409Z,10.03
2024-01-01T11:57:36.381Z,9.94
2024-01-01T12:00:04.878Z,9.94
2024-01-01T12:02:37.673Z,9.93
2024-01-01T12:05:06.524Z,9.92
2024-01-01T12:07:36.322Z,9.98
2024-01-01T12:10:11.950Z,10.03
2024-01-01T12:12:44.139Z,10.06
2024-01-01T12:15:20.087Z,10.04
2024-01-01T12:17:53.213Z,9.92
2024-01-01T12:20:26.700Z,9.91
2024-01-01T12:23:00.890Z,9.83
2024-01-01T12:25:28.914Z,9.82
2024-01-01T12:28:05.076Z,9.77
2024-01-01T12:30:34.494Z,9.66
2024-01-01T12:33:02.972Z,9.51
2024-01-01T12:35:31.492Z,9.41
2024-01-01T12:37:59.535Z,9.45
2024-01-01T12:40:29.774Z,9.36
2024-01-01T12:42:58.137Z,9.17
2024-01-01T12:45:27.420Z,9.19
2024-01-01T12:47:56.416Z,9.17
2024-01-01T12:50:24.586Z,9.12
2024-01-01T12:52:52.856Z,9.12
2024-01-01T12:55:21.084Z,9.17
2024-01-01T12:57:49.048Z,9.23
2024-01-01T13:00:18.439Z,9.24
2024-01-01T13:02:46.388Z,9.33
2024-01-01T13:05:15.829Z,9.31
2024-01-01T13:07:43.851Z,9.44
2024-01-01T13:10:13.452Z,9.46
2024-01-01T13:12:41.400Z,9.38
2024-01-01T13:15:09.552Z,9.48
2024-01-01T13:17:38.468Z,9.47
2024-01-01T13:20:07.970Z,9.55
2024-01-01T13:22:35.976Z,9.58
2024-01-01T13:25:05.482Z,9.62
2024-01-01T13:27:33.465Z,9.75
2024-01-01T13:30:02.399Z,9.78
2024-01-01T13:32:30.397Z,9.91
2024-01-01T13:34:59.035Z,10.11
2024-01-01T13:37:27.030Z,10.31
2024-01-01T13:39:55.302Z,10.38
2024-01-01T13:42:23.399Z,10.44
2024-01-01T13:44:51.345Z,10.44
2024-01-01T13:47:19.330Z,10.16
2024-01-01T13:49:47.742Z,9.88
2024-01-01T13:52:15.985Z,9.76
2024-01-01T13:54:44.185Z,9.71
2024-01-01T13:57:12.284Z,9.73
2024-01-01T13:59:40.944Z,9.56
2024-01-01T14:02:09.680Z,9.60
2024-01-01T14:04:37.835Z,9.53
2024-01-01T14:07:06.101Z,9.58
2024-01-01T14:09:36.549Z,9.54
2024-01-01T14:12:04.926Z,9.55
2024-01-01T14:14:33.571Z,9.54
2024-01-01T14:17:01.703Z,9.53
2024-01-01T14:19:29.670Z,9.43
2024-01-01T14:21:57.536Z,9.31
2024-01-01T14:24:25.797Z,9.23
2024-01-01T14:26:53.794Z,9.17
2024-01-01T14:29:25.461Z,9.14
2024-01-01T14:31:54.119Z,9.12
2024-01-01T14:34:22.231Z,9.08
2024-01-01T14:36:50.519Z,9.06
2024-01-01T14:39:18.463Z,9.02
2024-01-01T14:41:46.464Z,8.99
2024-01-01T14:44:14.510Z,8.96
2024-01-01T14:46:42.559Z,8.98
2024-01-01T14:49:25.811Z,9.00
2024-01-01T14:52:04.508Z,8.94
2024-01-01T14:54:47.449Z,8.85
2024-01-01T14:57:15.948Z,8.86
2024-01-01T14:59:44.726Z,8.83
2024-01-01T15:02:13.680Z,8.86
2024-01-01T15:04:46.060Z,8.87
2024-01-01T15:07:14.085Z,8.86
2024-01-01T15:09:42.235Z,8.88
2024-01-01T15:12:10.582Z,8.86
2024-01-01T15:14:38.526Z,8.90
2024-01-01T15:17:07.399Z,8.86
2024-01-01T15:19:35.463Z,8.82
2024-01-01T15:22:04.160Z,8.85
2024-01-01T15:24:32.116Z,8.76
2024-01-01T15:27:00.075Z,8.76
2024-01-01T15:29:28.039Z,8.72
2024-01-01T15:31:56.295Z,8.71
2024-01-01T15:34:24.535Z,8.72
2024-01-01T15:36:52.595Z,8.68
2024-01-01T15:39:20.488Z,8.67
2024-01-01T15:41:49.233Z,8.69
2024-01-01T15:44:17.780Z,8.66
2024-01-01T15:46:45.860Z,8.61
2024-01-01T15:49:14.782Z,8.59
2024-01-01T15:51:42.814Z,8.61
2024-01-01T15:54:11.080Z,8.64
2024-01-01T15:56:43.065Z,8.58
2024-01-01T15:59:11.343Z,8.56
2024-01-01T16:01:39.298Z,8.56
2024-01-01T16:04:07.239Z,8.55
2024-01-01T16:06:35.231Z,8.58
2024-01-01T16:09:03.235Z,8.51
2024-01-01T16:11:31.310Z,8.48
2024-01-01T16:13:59.763Z,8.47
2024-01-01T16:16:27.742Z,8.49
2024-01-01T16:19:01.720Z,8.50
2024-01-01T16:21:30.422Z,8.49
2024-01-01T16:23:59.270Z,8.42
2024-01-01T16:26:27.371Z,8.41
2024-01-01T16:28:55.354Z,8.40
2024-01-01T16:31:24.357Z,8.35
2024-01-01T16:33:52.404Z,8.33
2024-01-01T16:36:20.488Z,8.28
2024-01-01T16:38:48.730Z,8.26
2024-01-01T16:41:16.674Z,8.27
2024-01-01T16:43:44.694Z,8.22
2024-01-01T16:46:12.657Z,8.22
2024-01-01T16:48:40.784Z,8.17
2024-01-01T16:51:08.763Z,8.13
2024-01-01T16:53:37.615Z,8.17
2024-01-01T16:56:05.846Z,8.17
2024-01-01T16:58:33.735Z,8.11
2024-01-01T17:01:01.743Z,8.02
2024-01-01T17:03:29.730Z,8.02
2024-01-01T17:06:01.718Z,7.94
2024-01-01T17:08:30.444Z,7.95
2024-01-01T17:10:58.519Z,7.89
2024-01-01T17:13:26.456Z,7.89
2024-01-01T17:15:54.430Z,7.81
2024-01-01T17:18:22.617Z,7.84
2024-01-01T17:20:50.581Z,7.79
2024-01-01T17:23:18.614Z,7.85
2024-01-01T17:25:46.585Z,7.84
2024-01-01T17:28:14.562Z,7.85
2024-01-01T17:30:42.615Z,7.87
2024-01-01T17:33:12.016Z,7.82
2024-01-01T17:35:40.218Z,7.87
2024-01-01T17:38:08.242Z,7.87
2024-01-01T17:40:36.218Z,7.89
2024-01-01T17:43:04.458Z,7.90
2024-01-01T17:45:32.605Z,7.98
2024-01-01T17:48:00.606Z,7.95
2024-01-01T17:50:28.569Z,7.98
2024-01-01T17:52:56.862Z,7.99
2024-01-01T17:55:24.970Z,7.98
2024-01-01T17:57:53.160Z,7.99
2024-01-01T18:00:21.097Z,7.97
2024-01-01T18:02:49.074Z,7.88
2024-01-01T18:05:17.195Z,7.89
2024-01-01T18:07:46.225Z,7.88
2024-01-01T18:10:14.347Z,7.91
2024-01-01T18:12:42.329Z,7.93
2024-01-01T18:15:11.551Z,7.94
2024-01-01T18:17:40.835Z,7.86
2024-01-01T18:20:09.300Z,7.87
2024-01-01T18:22:37.501Z,7.89
2024-01-01T18:25:06.463Z,7.89
2024-01-01T18:27:34.427Z,7.94
2024-01-01T18:30:02.553Z,7.88
2024-01-01T18:32:30.976Z,7.87
2024-01-01T18:34:59.400Z,7.87
2024-01-01T18:37:27.417Z,7.88
2024-01-01T18:39:55.389Z,7.86
2024-01-01T18:42:24.684Z,7.81
2024-01-01T18:44:58.082Z,7.83
2024-01-01T18:47:27.119Z,7.81
2024-01-01T18:49:55.909Z,7.80
2024-01-01T18:52:24.281Z,7.81
2024-01-01T18:54:53.317Z,7.78
2024-01-01T18:57:21.210Z,7.69
2024-01-01T18:59:49.174Z,7.73
2024-01-01T19:02:17.181Z,7.78
2024-01-01T19:04:45.298Z,7.70
2024-01-01T19:07:13.248Z,7.71
2024-01-01T19:09:42.089Z,7.73
2024-01-01T19:12:10.086Z,7.69
2024-01-01T19:14:38.206Z,7.71
2024-01-01T19:17:06.208Z,7.67
2024-01-01T19:19:34.466Z,7.75
2024-01-01T19:22:02.481Z,7.73
2024-01-01T19:24:30.476Z,7.77
2024-01-01T19:26:58.397Z,7.79
2024-01-01T19:29:26.477Z,7.81
2024-01-01T19:31:54.464Z,7.82
2024-01-01T19:34:22.410Z,7.84
2024-01-01T19:36:50.472Z,7.81
2024-01-01T19:39:18.446Z,7.84
2024-01-01T19:41:50.867Z,7.88
2024-01-01T19:44:18.986Z,7.96
2024-01-01T19:46:47.064Z,7.96
2024-01-01T19:49:15.857Z,7.99
2024-01-01T19:51:43.876Z,7.99
2024-01-01T19:54:12.639Z,8.07
2024-01-01T19:56:41.013Z,8.09
2024-01-01T19:59:12.265Z,8.09
2024-01-01T20:01:45.081Z,8.11
2024-01-01T20:04:15.841Z,8.13
2024-01-01T20:06:44.739Z,8.19
2024-01-01T20:09:13.130Z,8.16
2024-01-01T20:11:41.173Z,8.16
2024-01-01T20:14:11.870Z,8.14
2024-01-01T20:16:40.196Z,8.13
2024-01-01T20:19:10.891Z,8.18
2024-01-01T20:21:38.949Z,8.19
2024-01-01T20:24:08.172Z,8.21
2024-01-01T20:26:37.029Z,8.26
2024-01-01T20:29:06.119Z,8.26
2024-01-01T20:31:34.083Z,8.26
2024-01-01T20:34:02.158Z,8.26
2024-01-01T20:36:30.320Z,8.27
2024-01-01T20:38:59.343Z,8.28
2024-01-01T20:41:30.142Z,8.28
2024-01-01T20:43:58.410Z,8.29
2024-01-01T20:46:27.167Z,8.32
2024-01-01T20:48:55.220Z,8.34
2024-01-01T20:51:23.272Z,8.35
2024-01-01T20:53:51.287Z,8.35
2024-01-01T20:56:21.256Z,8.30
2024-01-01T20:58:49.811Z,8.36
2024-01-01T21:01:18.016Z,8.34
2024-01-01T21:03:46.203Z,8.33
2024-01-01T21:06:14.326Z,8.40
2024-01-01T21:08:43.163Z,8.39
2024-01-01T21:11:11.269Z,8.41
2024-01-01T21:13:39.679Z,8.37
2024-01-01T21:16:08.992Z,8.37
2024-01-01T21:18:37.139Z,8.40
2024-01-01T21:21:05.196Z,8.40
2024-01-01T21:23:33.636Z,8.31
2024-01-01T21:26:02.265Z,8.40
2024-01-01T21:28:30.281Z,8.36
2024-01-01T21:30:58.419Z,8.37
2024-01-01T21:33:26.459Z,8.35
2024-01-01T21:35:54.614Z,8.33
2024-01-01T21:38:22.638Z,8.34
2024-01-01T21:40:51.501Z,8.33
2024-01-01T21:43:19.616Z,8.33
2024-01-01T21:45:47.609Z,8.35
2024-01-01T21:48:15.614Z,8.36
2024-01-01T21:50:43.888Z,8.32
2024-01-01T21:53:11.940Z,8.31
2024-01-01T21:55:42.582Z,8.32
2024-01-01T21:58:10.659Z,8.35
2024-01-01T22:00:38.704Z,8.32
2024-01-01T22:03:06.979Z,8.32
2024-01-01T22:05:35.262Z,8.37
2024-01-01T22:08:03.535Z,8.38
2024-01-01T22:10:31.577Z,8.41
2024-01-01T22:12:59.498Z,8.37
2024-01-01T22:15:27.505Z,8.36
2024-01-01T22:17:55.680Z,8.37
2024-01-01T22:20:23.815Z,8.34
2024-01-01T22:22:51.993Z,8.44
2024-01-01T22:25:20.053Z,8.43
2024-01-01T22:27:49.229Z,8.41
2024-01-01T22:30:17.364Z,8.37
2024-01-01T22:32:45.388Z,8.42
2024-01-01T22:35:14.479Z,8.43
2024-01-01T22:37:42.874Z,8.48
2024-01-01T22:40:11.153Z,8.52
2024-01-01T22:42:39.239Z,8.49
2024-01-01T22:45:07.805Z,8.47
2024-01-01T22:47:35.943Z,8.48
2024-01-01T22:50:04.525Z,8.54
2024-01-01T22:52:32.529Z,8.53
2024-01-01T22:55:00.532Z,8.56
2024-01-01T22:57:28.420Z,8.57
2024-01-01T22:59:56.391Z,8.55
2024-01-01T23:02:24.291Z,8.53
2024-01-01T23:04:52.347Z,8.56
2024-01-01T23:07:20.314Z,8.52
2024-01-01T23:09:48.195Z,8.57
2024-01-01T23:12:16.108Z,8.61
2024-01-01T23:14:44.049Z,8.57
2024-01-01T23:17:12.026Z,8.56
2024-01-01T23:19:40.430Z,8.57
2024-01-01T23:22:08.464Z,8.61
2024-01-01T23:24:36.419Z,8.61
2024-01-01T23:27:04.476Z,8.62
2024-01-01T23:29:32.649Z,8.62
2024-01-01T23:32:00.614Z,8.63
2024-01-01T23:34:28.673Z,8.59
2024-01-01T23:36:56.723Z,8.65
2024-01-01T23:39:24.686Z,8.63
2024-01-01T23:41:52.701Z,8.60
2024-01-01T23:44:20.635Z,8.58
2024-01-01T23:46:49.316Z,8.60
2024-01-01T23:49:17.838Z,8.62
2024-01-01T23:51:45.827Z,8.64
2024-01-01T23:54:13.875Z,8.63
2024-01-01T23:56:41.809Z,8.64
2024-01-01T23:59:10.967Z,8.65
